Time;durP1;ratioP1;P1;durP2;ratioP2;P2;SDS_P1;SDS_P2;PMS_P1;PMS_P2;Temp;Humidity;BMP_temperature;BMP_pressure;BME280_temperature;BME280_humidity;BME280_pressure;Samples;Min_cycle;Max_cycle;Signal;HPM_P1;HPM_P2
2024/01/24 04:00:55;;;;;;;1.48;0.80;;;21.70;30.60;;;;;;6073169;23;45303;-87
2024/01/24 04:03:24;;;;;;;2.03;0.90;;;21.70;30.70;;;;;;4937334;28;46746;-85
2024/01/24 04:05:52;;;;;;;1.92;0.90;;;21.70;30.70;;;;;;4976031;28;45538;-85
2024/01/24 04:08:17;;;;;;;2.40;0.90;;;21.70;30.70;;;;;;4982631;28;46376;-85
2024/01/24 04:10:43;;;;;;;1.77;0.80;;;21.80;30.70;;;;;;4953677;23;45316;-44
2024/01/24 04:13:08;;;;;;;1.90;0.90;;;21.80;30.70;;;;;;4984793;28;45101;-42
2024/01/24 04:15:34;;;;;;;2.00;0.90;;;21.80;30.70;;;;;;4964327;28;45631;-43
2024/01/24 04:18:00;;;;;;;2.47;0.93;;;21.80;30.70;;;;;;4975148;28;46545;-40
2024/01/24 04:20:25;;;;;;;1.97;0.83;;;21.90;30.80;;;;;;4961092;28;45301;-40
2024/01/24 04:22:51;;;;;;;1.87;0.80;;;21.90;30.80;;;;;;5004032;28;45282;-40
2024/01/24 04:25:16;;;;;;;2.00;0.80;;;21.90;30.80;;;;;;4985625;28;45284;-44
2024/01/24 04:27:42;;;;;;;2.37;1.00;;;21.90;30.80;;;;;;4999534;28;46565;-43
2024/01/24 04:30:08;;;;;;;2.40;0.90;;;21.90;30.80;;;;;;4979909;28;45429;-44
2024/01/24 04:32:34;;;;;;;1.65;0.80;;;22.00;30.80;;;;;;4954268;28;45884;-43
2024/01/24 04:34:59;;;;;;;1.37;0.73;;;22.00;30.80;;;;;;4983868;28;45654;-46
2024/01/24 04:37:25;;;;;;;1.37;0.70;;;22.00;30.80;;;;;;4991366;28;46396;-45
2024/01/24 04:39:51;;;;;;;1.67;0.73;;;22.10;30.80;;;;;;5001885;28;46192;-43
2024/01/24 04:42:17;;;;;;;2.28;0.70;;;22.10;30.70;;;;;;4966895;28;45520;-45
2024/01/24 04:44:43;;;;;;;2.73;0.90;;;22.20;30.80;;;;;;4971291;28;44817;-45
2024/01/24 04:47:09;;;;;;;1.80;0.70;;;22.10;30.70;;;;;;4980679;28;45774;-44
2024/01/24 04:49:34;;;;;;;1.77;0.75;;;22.10;30.70;;;;;;5006905;28;45483;-45
2024/01/24 04:52:00;;;;;;;2.30;0.80;;;22.20;30.80;;;;;;4994279;28;45197;-43
2024/01/24 04:54:26;;;;;;;2.00;0.95;;;22.20;30.70;;;;;;4963560;28;45664;-45
2024/01/24 04:56:51;;;;;;;2.03;0.80;;;22.20;30.70;;;;;;4990666;28;46054;-43
2024/01/24 04:59:17;;;;;;;2.10;1.00;;;22.20;30.70;;;;;;5000142;28;45408;-44
2024/01/24 05:01:43;;;;;;;1.20;0.60;;;22.30;30.70;;;;;;4965087;28;45985;-46
2024/01/24 05:04:09;;;;;;;2.35;0.88;;;22.30;30.80;;;;;;4996206;28;45811;-43
2024/01/24 05:06:35;;;;;;;2.03;0.90;;;22.30;30.70;;;;;;4992715;28;46662;-42
2024/01/24 05:09:01;;;;;;;2.37;0.90;;;22.30;30.70;;;;;;5003109;28;45737;-44
2024/01/24 05:11:27;;;;;;;2.42;0.60;;;22.40;30.70;;;;;;4988399;28;45512;-44
2024/01/24 05:13:54;;;;;;;2.20;0.80;;;22.40;30.70;;;;;;4986555;28;45302;-47
2024/01/24 05:16:20;;;;;;;1.85;0.90;;;22.40;30.70;;;;;;4984947;28;45293;-43
2024/01/24 05:18:46;;;;;;;1.73;0.73;;;22.50;30.70;;;;;;4999694;28;45460;-44
2024/01/24 05:21:11;;;;;;;2.03;0.80;;;22.50;30.70;;;;;;4985006;28;45183;-45
2024/01/24 05:23:37;;;;;;;1.90;0.90;;;22.50;30.70;;;;;;4996887;28;45251;-44
2024/01/24 05:26:02;;;;;;;1.27;0.80;;;22.50;30.70;;;;;;4989534;28;46306;-44
2024/01/24 05:28:28;;;;;;;1.50;0.70;;;22.50;30.70;;;;;;5002833;28;44926;-43
2024/01/24 05:30:53;;;;;;;1.70;0.70;;;22.60;30.70;;;;;;4984664;28;45490;-42
2024/01/24 05:33:19;;;;;;;3.43;0.90;;;22.60;30.70;;;;;;4991471;28;45707;-44
2024/01/24 05:35:45;;;;;;;1.67;0.80;;;22.60;30.80;;;;;;4993156;28;46741;-43
2024/01/24 05:38:11;;;;;;;1.73;0.70;;;22.60;30.70;;;;;;4984406;28;45503;-44
2024/01/24 05:40:37;;;;;;;1.57;0.70;;;22.70;30.70;;;;;;4997094;28;44992;-43
2024/01/24 05:43:03;;;;;;;2.30;0.63;;;22.70;30.70;;;;;;5003229;28;44867;-45
2024/01/24 05:45:29;;;;;;;0.80;0.50;;;22.70;30.60;;;;;;4980820;28;45962;-42
2024/01/24 05:47:54;;;;;;;1.87;0.77;;;22.70;30.60;;;;;;4996597;28;45205;-42
2024/01/24 05:50:22;;;;;;;1.73;0.60;;;22.80;30.60;;;;;;4994976;28;59869;-43
2024/01/24 05:52:47;;;;;;;1.58;0.70;;;22.80;30.70;;;;;;5000666;28;45456;-42
2024/01/24 05:55:13;;;;;;;1.67;0.67;;;22.80;30.50;;;;;;4986678;28;45692;-48
2024/01/24 05:57:39;;;;;;;1.97;0.60;;;22.80;30.40;;;;;;4969968;28;45424;-44
2024/01/24 06:00:08;;;;;;;1.00;0.65;;;22.90;30.40;;;;;;5000764;28;46378;-47
2024/01/24 06:02:36;;;;;;;2.15;0.70;;;22.90;30.40;;;;;;4954873;28;45354;-44
2024/01/24 06:05:03;;;;;;;1.52;0.63;;;22.90;30.30;;;;;;5001487;28;46759;-44
2024/01/24 06:07:29;;;;;;;1.42;0.60;;;23.00;30.30;;;;;;4961470;28;45234;-43
2024/01/24 06:09:54;;;;;;;1.33;0.60;;;23.00;30.20;;;;;;5008154;28;45038;-43
2024/01/24 06:12:20;;;;;;;1.33;0.60;;;23.00;30.20;;;;;;4992486;28;45309;-43
2024/01/24 06:14:54;;;;;;;1.73;0.80;;;23.00;30.20;;;;;;4990337;28;46438;-44
2024/01/24 06:17:20;;;;;;;1.00;0.70;;;23.10;30.20;;;;;;4967598;28;45362;-45
2024/01/24 06:19:45;;;;;;;1.40;0.60;;;23.10;30.10;;;;;;5005356;28;45512;-42
2024/01/24 06:22:11;;;;;;;1.63;0.60;;;23.10;30.10;;;;;;4985249;28;45300;-43
2024/01/24 06:24:36;;;;;;;1.20;0.63;;;23.10;30.10;;;;;;4996473;28;45844;-47
2024/01/24 06:27:03;;;;;;;1.15;0.50;;;23.10;30.10;;;;;;4988131;28;45489;-45
2024/01/24 06:29:29;;;;;;;0.75;0.40;;;23.20;30.00;;;;;;4975949;28;45426;-43
2024/01/24 06:31:55;;;;;;;1.90;0.70;;;23.20;30.00;;;;;;4979774;28;45686;-45
2024/01/24 06:34:21;;;;;;;1.13;0.50;;;23.20;30.00;;;;;;4986228;28;45344;-43
2024/01/24 06:36:47;;;;;;;1.00;0.50;;;23.30;30.00;;;;;;4977730;28;45185;-43
2024/01/24 06:39:13;;;;;;;2.00;0.50;;;23.20;30.00;;;;;;5006551;28;45494;-44
2024/01/24 06:41:38;;;;;;;1.80;0.50;;;23.30;30.00;;;;;;5000347;28;44951;-43
2024/01/24 06:44:05;;;;;;;1.20;0.60;;;23.30;30.00;;;;;;4999039;28;45771;-40
2024/01/24 06:46:31;;;;;;;1.40;0.60;;;23.30;30.00;;;;;;4950577;28;45056;-40
2024/01/24 06:48:57;;;;;;;3.03;0.77;;;23.30;30.00;;;;;;5002748;28;45678;-46
2024/01/24 06:51:23;;;;;;;1.20;0.60;;;23.30;30.00;;;;;;4994744;28;45876;-41
2024/01/24 06:53:48;;;;;;;1.00;0.60;;;23.30;30.00;;;;;;5011908;28;46306;-42
2024/01/24 06:56:14;;;;;;;1.27;0.60;;;23.30;30.00;;;;;;4996362;28;45461;-41
2024/01/24 06:58:40;;;;;;;2.57;0.97;;;23.30;30.00;;;;;;5006346;28;44912;-40
2024/01/24 07:01:06;;;;;;;1.50;0.68;;;23.30;30.00;;;;;;4984636;28;45562;-42
2024/01/24 07:03:32;;;;;;;2.43;0.73;;;23.40;30.00;;;;;;4996909;28;45147;-41
2024/01/24 07:05:58;;;;;;;2.40;0.52;;;23.30;30.00;;;;;;5000556;28;45014;-40
2024/01/24 07:08:23;;;;;;;1.35;0.75;;;23.40;30.00;;;;;;5006365;28;45073;-41
2024/01/24 07:10:49;;;;;;;1.33;0.60;;;23.40;30.00;;;;;;4994885;28;45276;-45
2024/01/24 07:13:14;;;;;;;1.23;0.80;;;23.40;30.00;;;;;;5009433;28;46355;-40
2024/01/24 07:15:40;;;;;;;2.15;1.00;;;23.40;30.00;;;;;;4975882;28;45948;-40
2024/01/24 07:18:06;;;;;;;1.98;0.98;;;23.40;29.90;;;;;;4987974;28;45409;-41
2024/01/24 07:20:31;;;;;;;1.67;1.08;;;23.40;30.00;;;;;;4988656;28;45285;-42
2024/01/24 07:22:57;;;;;;;1.48;0.85;;;23.40;30.00;;;;;;5011823;28;45816;-42
2024/01/24 07:25:23;;;;;;;1.35;0.82;;;23.40;29.90;;;;;;4993570;28;45592;-40
2024/01/24 07:27:48;;;;;;;1.85;0.90;;;23.40;29.90;;;;;;4987946;28;45273;-45
2024/01/24 07:30:15;;;;;;;1.60;0.85;;;23.40;29.90;;;;;;4990893;28;45187;-43
2024/01/24 07:32:41;;;;;;;1.95;0.80;;;23.40;29.90;;;;;;4985225;28;45533;-44
2024/01/24 07:35:08;;;;;;;2.63;1.27;;;23.40;29.90;;;;;;4996000;28;45737;-46
2024/01/24 07:37:34;;;;;;;1.45;0.90;;;23.40;29.90;;;;;;4969016;28;45692;-46
2024/01/24 07:40:00;;;;;;;1.73;0.80;;;23.40;29.90;;;;;;5009687;28;45304;-47
2024/01/24 07:42:25;;;;;;;1.47;0.90;;;23.40;29.90;;;;;;4993109;28;46035;-43
2024/01/24 07:44:51;;;;;;;1.30;0.90;;;23.40;29.90;;;;;;5009966;28;45322;-45
2024/01/24 07:47:20;;;;;;;1.13;0.83;;;23.40;30.00;;;;;;4964434;28;45544;-43
2024/01/24 07:49:45;;;;;;;1.40;0.80;;;23.40;30.00;;;;;;5005310;28;45354;-44
2024/01/24 07:52:11;;;;;;;1.80;0.80;;;23.40;30.00;;;;;;5003262;28;47483;-45
2024/01/24 07:54:36;;;;;;;0.80;0.70;;;23.40;30.00;;;;;;5005622;28;45443;-44
2024/01/24 07:57:03;;;;;;;1.30;0.70;;;23.40;30.00;;;;;;4976146;28;45585;-45
2024/01/24 07:59:29;;;;;;;2.00;0.80;;;23.40;30.00;;;;;;5002735;28;45306;-45
2024/01/24 08:01:55;;;;;;;1.33;0.80;;;23.40;30.00;;;;;;4985265;28;46023;-45
2024/01/24 08:04:20;;;;;;;0.80;0.60;;;23.40;30.00;;;;;;4997254;28;45844;-44
2024/01/24 08:06:47;;;;;;;0.80;0.50;;;23.40;30.00;;;;;;5003100;28;45276;-45
2024/01/24 08:09:13;;;;;;;0.60;0.50;;;23.40;30.00;;;;;;5005622;28;45569;-47
2024/01/24 08:11:38;;;;;;;1.27;0.87;;;23.30;30.00;;;;;;4998811;28;46078;-45
2024/01/24 08:14:04;;;;;;;0.90;0.60;;;23.40;30.00;;;;;;5012850;28;45492;-44
2024/01/24 08:16:29;;;;;;;0.77;0.50;;;23.30;30.00;;;;;;4986758;28;45325;-47
2024/01/24 08:18:56;;;;;;;1.73;0.57;;;23.30;30.00;;;;;;5008148;28;45397;-43
2024/01/24 08:21:22;;;;;;;0.35;0.32;;;23.40;30.00;;;;;;5003064;28;46103;-50
2024/01/24 08:23:47;;;;;;;0.90;0.47;;;23.30;30.00;;;;;;5008903;28;45815;-42
2024/01/24 08:26:13;;;;;;;1.27;0.60;;;23.30;30.00;;;;;;4966576;28;45415;-44
2024/01/24 08:28:39;;;;;;;0.77;0.50;;;23.30;30.00;;;;;;5002837;28;45491;-43
2024/01/24 08:31:05;;;;;;;0.70;0.45;;;23.30;30.00;;;;;;4969486;28;46288;-46
2024/01/24 08:33:32;;;;;;;1.30;0.50;;;23.30;30.00;;;;;;5000326;28;45128;-45
2024/01/24 08:35:58;;;;;;;0.80;0.40;;;23.30;30.00;;;;;;5005659;28;45321;-46
2024/01/24 08:38:23;;;;;;;0.95;0.50;;;23.30;30.00;;;;;;5013486;28;47106;-46
2024/01/24 08:40:49;;;;;;;0.55;0.38;;;23.30;30.00;;;;;;4978780;28;45627;-44
2024/01/24 08:43:14;;;;;;;0.38;0.32;;;23.30;30.00;;;;;;5006819;28;45221;-43
2024/01/24 08:45:40;;;;;;;0.30;0.30;;;23.30;30.00;;;;;;4994649;28;46021;-44
2024/01/24 08:48:06;;;;;;;0.40;0.40;;;23.30;30.00;;;;;;4983848;28;45668;-43
2024/01/24 08:50:32;;;;;;;1.15;0.60;;;23.30;30.00;;;;;;4994667;28;45386;-44
2024/01/24 08:52:58;;;;;;;0.47;0.30;;;23.30;30.00;;;;;;5012350;28;45437;-43
2024/01/24 08:55:24;;;;;;;0.47;0.38;;;23.30;30.00;;;;;;5000168;28;45532;-45
2024/01/24 08:57:49;;;;;;;0.53;0.30;;;23.30;30.00;;;;;;5004454;28;45505;-43
2024/01/24 09:00:16;;;;;;;0.77;0.47;;;23.30;30.00;;;;;;4979182;28;45372;-43
2024/01/24 09:02:42;;;;;;;0.43;0.30;;;23.30;30.00;;;;;;5002450;28;45289;-44
2024/01/24 09:05:08;;;;;;;1.30;0.40;;;23.30;30.00;;;;;;5002634;28;45263;-43
2024/01/24 09:07:34;;;;;;;0.80;0.30;;;23.30;30.00;;;;;;4984065;28;49406;-44
2024/01/24 09:10:00;;;;;;;0.45;0.40;;;23.30;30.00;;;;;;4992096;28;45876;-45
2024/01/24 09:12:26;;;;;;;0.40;0.30;;;23.30;30.00;;;;;;4996471;28;44891;-42
2024/01/24 09:14:52;;;;;;;0.70;0.40;;;23.30;30.00;;;;;;5002630;28;45086;-42
2024/01/24 09:17:17;;;;;;;0.73;0.30;;;23.30;30.10;;;;;;4976315;28;45421;-43
2024/01/24 09:19:44;;;;;;;0.90;0.37;;;23.30;30.00;;;;;;5009755;28;45639;-43
2024/01/24 09:22:10;;;;;;;0.80;0.30;;;23.30;30.10;;;;;;4999270;28;45416;-43
2024/01/24 09:24:38;;;;;;;0.27;0.27;;;23.30;30.10;;;;;;4998294;28;46563;-43
2024/01/24 09:27:04;;;;;;;0.50;0.30;;;23.30;30.10;;;;;;4982164;28;45377;-43
2024/01/24 09:29:30;;;;;;;0.40;0.25;;;23.30;30.10;;;;;;4986481;28;46035;-43
2024/01/24 09:31:55;;;;;;;0.50;0.30;;;23.30;30.20;;;;;;4986243;28;45247;-44
2024/01/24 09:34:23;;;;;;;0.40;0.30;;;23.20;30.20;;;;;;5006059;28;46336;-42
2024/01/24 09:36:49;;;;;;;0.32;0.20;;;23.20;30.20;;;;;;4997306;28;45794;-44
2024/01/24 09:39:14;;;;;;;0.50;0.30;;;23.20;30.30;;;;;;5005842;28;45770;-44
2024/01/24 09:41:43;;;;;;;0.20;0.15;;;23.20;30.30;;;;;;4975593;28;45358;-44
2024/01/24 09:44:09;;;;;;;0.50;0.40;;;23.10;30.30;;;;;;5009648;28;45593;-43
2024/01/24 09:46:37;;;;;;;1.10;0.30;;;23.20;30.40;;;;;;4984097;28;44833;-43
2024/01/24 09:49:05;;;;;;;0.80;0.20;;;23.10;30.40;;;;;;4998375;28;45582;-41
2024/01/24 09:51:33;;;;;;;0.50;0.20;;;23.10;30.40;;;;;;4994038;28;45183;-42
2024/01/24 09:54:03;;;;;;;0.27;0.13;;;23.10;30.40;;;;;;5011343;28;45310;-40
2024/01/24 09:56:29;;;;;;;0.30;0.20;;;23.10;30.50;;;;;;4995873;28;45048;-40
2024/01/24 09:58:54;;;;;;;0.20;0.20;;;23.10;30.40;;;;;;5011020;28;46743;-40
2024/01/24 10:01:20;;;;;;;0.50;0.30;;;23.10;30.40;;;;;;4992886;28;46468;-42
2024/01/24 10:03:46;;;;;;;0.20;0.13;;;23.10;30.50;;;;;;4983288;28;46163;-43
2024/01/24 10:06:12;;;;;;;0.20;0.20;;;23.10;30.40;;;;;;4988071;28;45553;-42
2024/01/24 10:08:44;;;;;;;0.43;0.10;;;23.10;30.50;;;;;;5000067;28;45503;-42
2024/01/24 10:11:09;;;;;;;0.20;0.20;;;23.10;30.40;;;;;;4976690;28;44798;-42
2024/01/24 10:13:38;;;;;;;0.20;0.20;;;23.10;30.50;;;;;;5006052;28;45076;-44
2024/01/24 10:16:05;;;;;;;0.27;0.20;;;23.10;30.40;;;;;;4991471;28;45670;-43
2024/01/24 10:18:31;;;;;;;0.20;0.10;;;23.10;30.40;;;;;;4990921;28;46274;-44
2024/01/24 10:20:58;;;;;;;0.30;0.20;;;23.10;30.50;;;;;;4978686;28;45550;-44
2024/01/24 10:23:23;;;;;;;0.60;0.27;;;23.10;30.40;;;;;;4992440;28;45451;-42
2024/01/24 10:25:49;;;;;;;0.20;0.10;;;23.10;30.50;;;;;;4992642;28;46572;-40
2024/01/24 10:28:16;;;;;;;0.30;0.10;;;23.10;30.50;;;;;;5005083;28;45668;-42
2024/01/24 10:30:42;;;;;;;0.20;0.20;;;23.10;30.50;;;;;;4981865;28;45254;-42
2024/01/24 10:33:12;;;;;;;0.20;0.20;;;23.10;30.50;;;;;;5005385;28;45100;-40
2024/01/24 10:35:38;;;;;;;0.40;0.27;;;23.10;30.50;;;;;;4973941;28;45455;-41
2024/01/24 10:38:04;;;;;;;0.30;0.20;;;23.00;30.50;;;;;;4990188;28;45269;-42
2024/01/24 10:40:30;;;;;;;0.30;0.20;;;23.00;30.50;;;;;;4980712;28;45595;-40
2024/01/24 10:42:59;;;;;;;0.13;0.10;;;23.00;30.50;;;;;;4958740;28;45201;-40
2024/01/24 10:45:26;;;;;;;0.35;0.20;;;23.00;30.50;;;;;;4941170;28;45588;-41
2024/01/24 10:47:52;;;;;;;0.50;0.10;;;23.00;30.50;;;;;;4958577;28;45548;-41
2024/01/24 10:50:18;;;;;;;0.83;0.47;;;23.00;30.50;;;;;;5004095;28;45238;-43
2024/01/24 10:52:43;;;;;;;0.20;0.10;;;23.00;30.60;;;;;;4971867;28;45347;-42
2024/01/24 10:55:11;;;;;;;0.40;0.20;;;23.00;30.70;;;;;;4987856;28;45058;-41
2024/01/24 10:57:36;;;;;;;0.30;0.20;;;23.00;30.80;;;;;;4960258;28;45504;-40
2024/01/24 11:00:05;;;;;;;0.20;0.10;;;23.00;30.90;;;;;;4981017;28;45215;-39
2024/01/24 11:02:34;;;;;;;0.52;0.25;;;23.00;31.00;;;;;;4982861;28;45680;-40
2024/01/24 11:05:03;;;;;;;0.70;0.20;;;23.00;31.00;;;;;;5003259;28;45193;-39
2024/01/24 11:07:31;;;;;;;0.57;0.20;;;23.00;31.10;;;;;;4946529;28;48646;-40
2024/01/24 11:10:07;;;;;;;0.30;0.20;;;23.00;31.20;;;;;;5003342;28;45821;-40
2024/01/24 11:12:33;;;;;;;0.20;0.10;;;23.00;31.30;;;;;;4975504;28;45915;-40
2024/01/24 11:15:06;;;;;;;0.10;0.10;;;23.00;31.20;;;;;;5001183;28;48783;-39
2024/01/24 11:17:35;;;;;;;0.40;0.20;;;23.00;31.30;;;;;;4946929;28;45872;-40
2024/01/24 11:20:08;;;;;;;0.55;0.20;;;23.00;31.30;;;;;;4985614;28;45509;-40
2024/01/24 11:22:34;;;;;;;0.40;0.20;;;23.00;31.30;;;;;;4985410;28;45232;-39
2024/01/24 11:24:59;;;;;;;0.40;0.20;;;23.00;31.40;;;;;;4997170;28;45119;-39
2024/01/24 11:27:35;;;;;;;0.30;0.20;;;23.00;31.40;;;;;;4992115;28;47014;-41
2024/01/24 11:30:22;;;;;;;0.70;0.20;;;23.00;31.40;;;;;;5003975;28;45021;-39
2024/01/24 11:32:47;;;;;;;0.32;0.10;;;23.00;31.40;;;;;;5000801;28;45753;-41
2024/01/24 11:35:31;;;;;;;0.30;0.20;;;23.00;31.50;;;;;;4996074;28;45434;-39
2024/01/24 11:38:01;;;;;;;0.65;0.25;;;23.00;31.50;;;;;;4981805;28;45061;-40
2024/01/24 11:40:27;;;;;;;0.70;0.20;;;23.00;31.60;;;;;;4994084;28;45285;-39
2024/01/24 11:42:56;;;;;;;0.30;0.20;;;23.00;32.20;;;;;;4971592;28;45336;-42
2024/01/24 11:45:22;;;;;;;0.70;0.20;;;23.00;31.60;;;;;;4976570;28;45385;-40
2024/01/24 11:47:48;;;;;;;1.35;0.20;;;23.00;31.70;;;;;;4958051;28;46492;-39
2024/01/24 11:50:13;;;;;;;0.50;0.20;;;23.00;31.70;;;;;;4983993;28;46042;-40
2024/01/24 11:52:40;;;;;;;0.30;0.10;;;23.00;31.80;;;;;;4993167;28;45604;-40
2024/01/24 11:55:06;;;;;;;0.40;0.10;;;23.00;31.80;;;;;;4965008;28;46036;-40
2024/01/24 11:57:32;;;;;;;1.20;0.20;;;23.00;31.90;;;;;;4979544;28;46047;-43
2024/01/24 11:59:57;;;;;;;1.20;0.20;;;23.00;31.90;;;;;;4997630;28;46309;-40
2024/01/24 12:02:26;;;;;;;0.90;0.20;;;23.00;32.60;;;;;;4979385;28;46221;-41
2024/01/24 12:04:52;;;;;;;0.17;0.10;;;23.00;32.00;;;;;;4973878;28;50021;-41
2024/01/24 12:07:18;;;;;;;0.47;0.10;;;23.00;32.00;;;;;;4991505;28;45871;-41
2024/01/24 12:09:43;;;;;;;0.80;0.23;;;23.00;32.10;;;;;;4993880;28;45679;-40
2024/01/24 12:12:09;;;;;;;0.60;0.10;;;23.00;32.10;;;;;;4914426;28;1769249;-40
2024/01/24 12:14:35;;;;;;;1.20;0.17;;;23.00;32.80;;;;;;4985015;28;45557;-42
2024/01/24 12:17:01;;;;;;;0.43;0.20;;;23.00;32.20;;;;;;4977282;28;46423;-40
2024/01/24 12:19:29;;;;;;;0.60;0.20;;;23.00;32.20;;;;;;4980452;28;45853;-43
2024/01/24 12:21:55;;;;;;;0.60;0.30;;;23.00;32.20;;;;;;4986600;28;45179;-41
2024/01/24 12:24:21;;;;;;;0.25;0.20;;;23.00;32.30;;;;;;4964707;28;46443;-40
2024/01/24 12:26:46;;;;;;;0.20;0.20;;;23.00;32.30;;;;;;4970675;28;45540;-42
2024/01/24 12:29:12;;;;;;;0.70;0.20;;;23.00;33.00;;;;;;4999830;28;45956;-42
2024/01/24 12:31:40;;;;;;;0.30;0.20;;;23.00;32.40;;;;;;4956265;28;45825;-43
2024/01/24 12:34:09;;;;;;;0.40;0.10;;;23.00;32.40;;;;;;4976791;28;46654;-43
2024/01/24 12:36:34;;;;;;;0.60;0.13;;;23.00;32.40;;;;;;4991857;28;46859;-44
2024/01/24 12:39:00;;;;;;;0.20;0.10;;;23.00;32.40;;;;;;4993053;28;45206;-46
2024/01/24 12:41:25;;;;;;;1.13;0.30;;;23.00;32.40;;;;;;4991434;28;45670;-44
2024/01/24 12:43:51;;;;;;;0.40;0.30;;;23.00;32.40;;;;;;4978983;28;45583;-44
2024/01/24 12:46:16;;;;;;;0.57;0.30;;;23.00;32.40;;;;;;4961454;28;46388;-44
2024/01/24 12:48:47;;;;;;;0.50;0.28;;;23.00;32.40;;;;;;4981032;28;46240;-42
2024/01/24 12:51:12;;;;;;;0.40;0.10;;;23.00;32.40;;;;;;4988333;28;46035;-44
2024/01/24 12:53:38;;;;;;;0.43;0.20;;;23.00;32.50;;;;;;5001122;28;45927;-43
2024/01/24 12:56:04;;;;;;;0.60;0.20;;;23.00;32.40;;;;;;4985929;28;45853;-44
2024/01/24 12:58:30;;;;;;;0.63;0.27;;;23.00;32.50;;;;;;4988427;28;45705;-43
2024/01/24 13:00:55;;;;;;;0.67;0.20;;;23.00;32.50;;;;;;4974979;28;45951;-46
2024/01/24 13:03:21;;;;;;;1.13;0.30;;;23.00;32.50;;;;;;4996479;28;46767;-43
2024/01/24 13:05:46;;;;;;;0.30;0.10;;;22.90;32.50;;;;;;4987597;28;45494;-43
2024/01/24 13:08:12;;;;;;;0.90;0.40;;;23.00;32.70;;;;;;4993919;28;45371;-46
2024/01/24 13:10:42;;;;;;;1.15;0.30;;;23.00;32.60;;;;;;4954047;28;45377;-43
2024/01/24 13:13:10;;;;;;;0.30;0.20;;;23.00;32.60;;;;;;4998702;28;45996;-43
2024/01/24 13:15:36;;;;;;;1.10;0.40;;;23.00;32.70;;;;;;4980157;28;45774;-43
2024/01/24 13:18:02;;;;;;;0.60;0.30;;;23.00;32.70;;;;;;4992692;28;44805;-42
2024/01/24 13:20:27;;;;;;;0.80;0.30;;;23.00;32.70;;;;;;4989033;28;46597;-42
2024/01/24 13:22:54;;;;;;;0.70;0.30;;;23.00;32.60;;;;;;4995164;28;45687;-43
2024/01/24 13:25:20;;;;;;;0.95;0.40;;;23.00;32.70;;;;;;4991781;28;46447;-43
2024/01/24 13:27:46;;;;;;;0.95;0.20;;;23.00;32.60;;;;;;4976587;28;45905;-42
2024/01/24 13:30:13;;;;;;;0.80;0.40;;;23.00;32.60;;;;;;4966668;28;45785;-44
2024/01/24 13:32:38;;;;;;;1.10;0.40;;;23.00;32.70;;;;;;4959091;28;45349;-41
2024/01/24 13:35:05;;;;;;;1.30;0.30;;;23.00;32.60;;;;;;4994030;28;46333;-40
2024/01/24 13:37:31;;;;;;;0.82;0.40;;;22.90;32.50;;;;;;4976217;28;46056;-40
2024/01/24 13:39:57;;;;;;;1.20;0.40;;;23.00;32.60;;;;;;4989380;28;45907;-42
2024/01/24 13:42:23;;;;;;;1.13;0.43;;;22.90;32.50;;;;;;4970987;28;45504;-40
2024/01/24 13:44:48;;;;;;;0.70;0.40;;;23.00;32.60;;;;;;4995300;28;46012;-43
2024/01/24 13:47:14;;;;;;;0.83;0.60;;;22.90;32.50;;;;;;4971681;28;45211;-41
2024/01/24 13:49:42;;;;;;;1.90;0.50;;;23.00;32.60;;;;;;4977957;28;46120;-44
2024/01/24 13:52:07;;;;;;;1.00;0.50;;;22.90;32.60;;;;;;4985398;28;45129;-43
2024/01/24 13:54:33;;;;;;;1.80;0.47;;;23.00;32.70;;;;;;4970089;28;46609;-44
2024/01/24 13:56:58;;;;;;;2.07;0.70;;;23.00;32.60;;;;;;4981785;28;45207;-45
2024/01/24 13:59:24;;;;;;;0.87;0.40;;;22.90;32.60;;;;;;5000086;28;45676;-46
2024/01/24 14:01:50;;;;;;;1.00;0.40;;;23.00;32.60;;;;;;4963529;28;45394;-44
2024/01/24 14:04:15;;;;;;;1.47;0.60;;;23.00;32.60;;;;;;4995018;28;46676;-44
2024/01/24 14:06:42;;;;;;;1.50;0.60;;;23.00;32.60;;;;;;4989513;28;45185;-43
2024/01/24 14:09:10;;;;;;;1.65;0.60;;;23.00;32.60;;;;;;4973207;28;46103;-45
2024/01/24 14:11:39;;;;;;;1.58;0.60;;;23.00;32.60;;;;;;4970960;28;45860;-46
2024/01/24 14:14:05;;;;;;;1.02;0.50;;;23.00;32.60;;;;;;4966256;28;45669;-43
2024/01/24 14:16:30;;;;;;;2.45;0.77;;;23.00;32.50;;;;;;4964930;28;45447;-46
2024/01/24 14:18:56;;;;;;;1.42;0.52;;;23.00;32.50;;;;;;4995619;28;45870;-43
2024/01/24 14:21:22;;;;;;;2.90;0.55;;;23.00;32.50;;;;;;4955087;28;45920;-47
2024/01/24 14:23:47;;;;;;;1.50;0.52;;;23.00;32.50;;;;;;5000695;28;47475;-47
2024/01/24 14:26:13;;;;;;;1.20;0.60;;;23.00;32.50;;;;;;4967350;28;45424;-44
2024/01/24 14:28:39;;;;;;;1.88;0.70;;;23.00;32.50;;;;;;4965240;28;45607;-44
2024/01/24 14:31:05;;;;;;;1.52;0.55;;;23.00;32.40;;;;;;4959294;28;45427;-44
2024/01/24 14:33:30;;;;;;;2.63;0.90;;;23.00;32.40;;;;;;4977511;28;45701;-43
2024/01/24 14:35:57;;;;;;;2.20;0.70;;;23.00;32.40;;;;;;4969827;28;45297;-45
2024/01/24 14:38:23;;;;;;;1.75;0.60;;;23.00;32.40;;;;;;4989172;28;46049;-45
2024/01/24 14:40:48;;;;;;;1.15;0.60;;;23.00;32.40;;;;;;4986025;28;45841;-43
2024/01/24 14:43:14;;;;;;;1.23;0.60;;;23.00;32.30;;;;;;4992831;28;46011;-44
2024/01/24 14:45:39;;;;;;;2.22;0.80;;;23.00;32.30;;;;;;4964690;28;46467;-45
2024/01/24 14:48:05;;;;;;;1.20;0.60;;;23.00;32.40;;;;;;4973160;28;46027;-44
2024/01/24 14:50:31;;;;;;;1.60;0.70;;;23.00;32.30;;;;;;4965062;28;45961;-43
2024/01/24 14:52:56;;;;;;;1.37;0.60;;;23.00;32.30;;;;;;4995952;28;45898;-43
2024/01/24 14:55:22;;;;;;;2.23;0.80;;;23.00;32.20;;;;;;4985628;28;45137;-44
2024/01/24 14:57:48;;;;;;;1.93;0.80;;;23.00;32.20;;;;;;4993474;28;46558;-44
2024/01/24 15:00:19;;;;;;;2.67;0.80;;;23.00;32.20;;;;;;4979205;28;45290;-44
2024/01/24 15:02:44;;;;;;;1.55;0.70;;;23.00;32.20;;;;;;4993079;28;45287;-43
2024/01/24 15:05:10;;;;;;;3.63;0.75;;;23.00;32.20;;;;;;4986339;28;45773;-44
2024/01/24 15:07:36;;;;;;;2.47;0.75;;;23.00;32.20;;;;;;4991302;28;44655;-42
2024/01/24 15:10:03;;;;;;;2.55;0.88;;;23.00;32.20;;;;;;4996147;28;46313;-44
2024/01/24 15:12:29;;;;;;;2.17;0.93;;;23.00;32.20;;;;;;4940880;28;45542;-44
2024/01/24 15:14:54;;;;;;;2.60;0.90;;;23.00;32.20;;;;;;4996326;28;46268;-42
2024/01/24 15:17:22;;;;;;;1.63;0.80;;;23.00;32.30;;;;;;4975197;28;45975;-43
2024/01/24 15:19:48;;;;;;;2.97;0.95;;;23.00;32.20;;;;;;4997299;28;45759;-45
2024/01/24 15:22:15;;;;;;;2.47;1.08;;;23.00;32.20;;;;;;4986051;28;45315;-44
2024/01/24 15:24:42;;;;;;;3.45;1.10;;;23.00;32.20;;;;;;4999013;28;45416;-43
2024/01/24 15:27:08;;;;;;;2.45;1.00;;;23.00;32.30;;;;;;4972609;28;45379;-44
2024/01/24 15:29:33;;;;;;;2.23;0.90;;;23.00;32.30;;;;;;4995682;28;45741;-44
2024/01/24 15:31:59;;;;;;;2.07;1.00;;;23.00;32.30;;;;;;4983435;28;45881;-43
2024/01/24 15:34:24;;;;;;;2.17;0.93;;;23.00;32.30;;;;;;4988982;28;45545;-43
2024/01/24 15:36:50;;;;;;;2.43;1.07;;;22.90;32.30;;;;;;4983876;28;45078;-45
2024/01/24 15:39:16;;;;;;;2.97;1.03;;;22.90;32.30;;;;;;4991669;28;45484;-49
2024/01/24 15:41:41;;;;;;;3.07;1.20;;;23.00;32.30;;;;;;4988684;28;46161;-45
2024/01/24 15:44:07;;;;;;;2.63;1.20;;;22.90;32.30;;;;;;4977288;28;44911;-46
2024/01/24 15:46:32;;;;;;;3.22;1.10;;;22.90;32.30;;;;;;4978907;28;45823;-45
2024/01/24 15:48:58;;;;;;;3.25;1.10;;;22.90;32.30;;;;;;4993451;28;45407;-44
2024/01/24 15:51:24;;;;;;;4.30;1.30;;;22.90;32.30;;;;;;4983065;28;45890;-44
2024/01/24 15:53:49;;;;;;;3.27;1.40;;;22.90;32.30;;;;;;4993175;28;45175;-43
2024/01/24 15:56:15;;;;;;;2.30;1.13;;;22.90;32.30;;;;;;4964413;28;46063;-45
2024/01/24 15:58:40;;;;;;;2.90;1.07;;;22.90;32.30;;;;;;4993175;28;45415;-46
2024/01/24 16:01:06;;;;;;;2.53;1.10;;;22.90;32.30;;;;;;4977530;28;48290;-43
2024/01/24 16:03:32;;;;;;;2.67;1.33;;;22.90;32.30;;;;;;4991415;28;45622;-43
2024/01/24 16:05:58;;;;;;;3.20;1.17;;;22.90;32.30;;;;;;4990114;28;45312;-42
2024/01/24 16:08:24;;;;;;;2.75;1.42;;;22.90;32.30;;;;;;4993922;28;45298;-43
2024/01/24 16:10:49;;;;;;;3.00;1.20;;;22.80;32.30;;;;;;4984156;28;45433;-43
2024/01/24 16:13:15;;;;;;;4.63;1.53;;;22.90;32.30;;;;;;4994075;28;45428;-44
2024/01/24 16:15:40;;;;;;;3.73;1.40;;;22.90;32.30;;;;;;4968794;28;45452;-43
2024/01/24 16:18:06;;;;;;;3.17;1.30;;;22.80;32.30;;;;;;4975491;28;45995;-44
2024/01/24 16:20:32;;;;;;;2.95;1.25;;;22.80;32.30;;;;;;4952073;28;46056;-44
2024/01/24 16:22:58;;;;;;;3.20;1.20;;;22.80;32.30;;;;;;4999670;28;45523;-43
2024/01/24 16:25:24;;;;;;;4.00;1.60;;;22.80;32.30;;;;;;4980742;28;47045;-44
2024/01/24 16:27:50;;;;;;;3.67;1.25;;;22.80;32.20;;;;;;4995683;28;46642;-45
2024/01/24 16:30:15;;;;;;;4.60;1.50;;;22.80;32.20;;;;;;4965801;28;47232;-46
2024/01/24 16:32:43;;;;;;;3.17;1.30;;;22.80;32.20;;;;;;4991168;28;45310;-45
2024/01/24 16:35:10;;;;;;;3.10;1.37;;;22.80;32.30;;;;;;4969614;28;46050;-45
2024/01/24 16:37:36;;;;;;;3.60;1.40;;;22.80;32.20;;;;;;4962539;28;45936;-46
2024/01/24 16:40:05;;;;;;;3.63;1.50;;;22.80;32.30;;;;;;4999067;28;46265;-46
2024/01/24 16:42:31;;;;;;;4.53;1.70;;;22.80;32.30;;;;;;4976758;28;45380;-46